Capitol Logistics 16




OMDB
Dubai International Airport
Dubai, AE
RKSI
Incheon International Airport
Seoul, KR

Activity Log

Date Flight Route Aircraft Duration
No Flights Yet

Route Details

Aircraft Information
Group: Large Widebodies
Types: B744,MD11
Route Data
Demand: V
Distance: 3637nm
Duration: 9h 34m
Recm'd Route: IVURO M428 MUNGA A777 VAXIM L301 RASKI L639 BPL A791 CEA B465 CTG A599 GULOT A599 LBN R343 HFE R343 PK A593 LAMEN SADLI Y590 ELGEP B576 OLMEN
Origin Wx: OMDB 270500Z 19009KT 150V250 CAVOK 33/19 Q1003 NOSIG
Dest. Wx: RKSI 270500Z 25011KT CAVOK 21/11 Q1001 NOSIG
Notes:

Financial History
Total Freight: 0lbs
Average Load: 0lbs/flt
Fuel Used: 0lbs
Avg. Fuel Used: 0lbs/flt
Fuel Expense: $0
Avg. Fuel Expense: $0
Avg. Fuel Cost: $0/lbs
Total Gross Income: $0
Pilot Pay: $0
Total Expenses: $0
Total Revenue: $0
Average Revenue: $0